createdAt,value
2023-05-16T00:01:38.348Z,10.85
2023-05-16T00:04:08.240Z,10.80
2023-05-16T00:06:37.624Z,10.83
2023-05-16T00:09:07.146Z,10.84
2023-05-16T00:11:34.955Z,10.84
2023-05-16T00:14:01.879Z,10.90
2023-05-16T00:16:29.106Z,10.92
2023-05-16T00:18:56.413Z,10.89
2023-05-16T00:21:23.936Z,10.89
2023-05-16T00:23:52.462Z,10.94
2023-05-16T00:26:19.850Z,10.84
2023-05-16T00:28:47.811Z,10.74
2023-05-16T00:31:14.979Z,10.72
2023-05-16T00:33:42.091Z,10.72
2023-05-16T00:36:10.071Z,10.81
2023-05-16T00:38:36.926Z,10.74
2023-05-16T00:41:03.699Z,10.78
2023-05-16T00:43:30.825Z,10.80
2023-05-16T00:45:58.379Z,10.84
2023-05-16T00:48:27.867Z,10.90
2023-05-16T00:50:55.014Z,10.92
2023-05-16T00:53:22.821Z,10.92
2023-05-16T00:55:49.927Z,10.89
2023-05-16T00:58:16.996Z,10.95
2023-05-16T01:00:45.664Z,10.85
2023-05-16T01:03:15.426Z,10.89
2023-05-16T01:05:42.661Z,10.93
2023-05-16T01:08:10.028Z,10.92
2023-05-16T01:11:11.713Z,11.05
2023-05-16T01:13:47.413Z,11.12
2023-05-16T01:16:24.982Z,11.13
2023-05-16T01:19:34.567Z,11.09
2023-05-16T01:22:12.227Z,11.16
2023-05-16T01:25:12.016Z,11.10
2023-05-16T01:27:39.242Z,11.08
2023-05-16T01:30:19.043Z,11.01
2023-05-16T01:32:47.257Z,11.03
2023-05-16T01:35:16.209Z,11.11
2023-05-16T01:37:46.941Z,11.16
2023-05-16T01:40:19.106Z,11.25
2023-05-16T01:42:48.871Z,11.19
2023-05-16T01:45:25.652Z,11.22
2023-05-16T01:48:22.408Z,11.21
2023-05-16T01:50:56.910Z,11.18
2023-05-16T01:53:43.417Z,11.37
2023-05-16T01:56:11.455Z,11.46
2023-05-16T01:58:38.381Z,11.41
2023-05-16T02:01:06.401Z,11.47
2023-05-16T02:03:33.718Z,11.68
2023-05-16T02:06:01.165Z,11.66
2023-05-16T02:08:29.017Z,11.48
2023-05-16T02:10:56.110Z,11.29
2023-05-16T02:13:23.231Z,11.25
2023-05-16T02:15:49.993Z,11.36
2023-05-16T02:18:16.735Z,11.17
2023-05-16T02:20:44.664Z,10.91
2023-05-16T02:23:11.490Z,10.88
2023-05-16T02:25:38.589Z,10.96
2023-05-16T02:28:05.361Z,10.82
2023-05-16T02:30:34.871Z,10.94
2023-05-16T02:33:01.691Z,11.14
2023-05-16T02:35:29.166Z,10.76
2023-05-16T02:37:56.834Z,10.94
2023-05-16T02:40:23.930Z,10.85
2023-05-16T02:42:51.117Z,10.79
2023-05-16T02:45:20.588Z,10.73
2023-05-16T02:47:52.195Z,10.73
2023-05-16T02:50:21.081Z,10.70
2023-05-16T02:52:49.284Z,10.74
2023-05-16T02:55:22.236Z,10.73
2023-05-16T02:57:49.551Z,10.79
2023-05-16T03:00:18.665Z,10.70
2023-05-16T03:02:46.165Z,10.75
2023-05-16T03:05:13.010Z,10.82
2023-05-16T03:07:39.725Z,10.79
2023-05-16T03:10:08.069Z,10.70
2023-05-16T03:12:37.521Z,10.70
2023-05-16T03:15:05.878Z,10.72
2023-05-16T03:17:34.197Z,10.59
2023-05-16T03:20:01.522Z,10.68
2023-05-16T03:22:28.696Z,10.74
2023-05-16T03:24:58.141Z,10.59
2023-05-16T03:27:25.368Z,10.67
2023-05-16T03:29:53.677Z,10.68
2023-05-16T03:32:20.431Z,10.56
2023-05-16T03:34:47.569Z,10.49
2023-05-16T03:37:15.553Z,10.52
2023-05-16T03:39:42.337Z,10.51
2023-05-16T03:42:11.925Z,10.51
2023-05-16T03:44:38.996Z,10.40
2023-05-16T03:47:06.195Z,10.51
2023-05-16T03:49:32.937Z,10.51
2023-05-16T03:52:03.023Z,10.40
2023-05-16T03:54:30.152Z,10.31
2023-05-16T03:56:57.309Z,10.29
2023-05-16T03:59:24.528Z,10.35
2023-05-16T04:01:51.668Z,10.31
2023-05-16T04:04:18.397Z,10.35
2023-05-16T04:06:45.643Z,10.31
2023-05-16T04:09:12.798Z,10.30
2023-05-16T04:11:42.086Z,10.46
2023-05-16T04:14:10.776Z,10.50
2023-05-16T04:16:39.089Z,10.40
2023-05-16T04:19:06.601Z,10.37
2023-05-16T04:21:37.396Z,10.36
2023-05-16T04:24:05.153Z,10.37
2023-05-16T04:26:31.843Z,10.49
2023-05-16T04:29:00.283Z,10.30
2023-05-16T04:31:27.541Z,10.25
2023-05-16T04:33:54.350Z,10.30
2023-05-16T04:36:22.177Z,10.39
2023-05-16T04:38:48.997Z,10.54
2023-05-16T04:41:16.292Z,10.47
2023-05-16T04:43:43.953Z,10.50
2023-05-16T04:46:10.937Z,10.50
2023-05-16T04:48:38.171Z,10.54
2023-05-16T04:51:06.317Z,10.53
2023-05-16T04:53:33.291Z,10.72
2023-05-16T04:56:00.576Z,10.65
2023-05-16T04:58:27.318Z,10.79
2023-05-16T05:00:54.418Z,10.74
2023-05-16T05:03:21.310Z,10.58
2023-05-16T05:05:48.512Z,10.72
2023-05-16T05:08:15.322Z,10.74
2023-05-16T05:10:42.036Z,10.69
2023-05-16T05:13:09.184Z,10.77
2023-05-16T05:15:36.322Z,10.91
2023-05-16T05:18:03.600Z,10.70
2023-05-16T05:20:30.474Z,10.67
2023-05-16T05:22:57.229Z,10.64
2023-05-16T05:25:24.857Z,10.84
2023-05-16T05:27:58.423Z,10.92
2023-05-16T05:30:25.785Z,10.70
2023-05-16T05:32:53.619Z,10.87
2023-05-16T05:35:20.564Z,10.94
2023-05-16T05:37:47.669Z,10.93
2023-05-16T05:40:17.439Z,10.77
2023-05-16T05:42:46.716Z,10.94
2023-05-16T05:45:15.287Z,10.86
2023-05-16T05:47:44.879Z,11.07
2023-05-16T05:50:12.854Z,11.03
2023-05-16T05:52:40.980Z,11.07
2023-05-16T05:55:08.819Z,11.14
2023-05-16T05:57:35.534Z,11.18
2023-05-16T06:00:02.271Z,11.11
2023-05-16T06:02:29.768Z,11.09
2023-05-16T06:04:58.480Z,11.05
2023-05-16T06:07:25.214Z,11.26
2023-05-16T06:09:54.812Z,10.95
2023-05-16T06:12:22.547Z,10.82
2023-05-16T06:14:49.697Z,10.90
2023-05-16T06:17:16.547Z,11.10
2023-05-16T06:19:43.656Z,11.32
2023-05-16T06:22:13.438Z,10.96
2023-05-16T06:24:40.343Z,11.39
2023-05-16T06:27:07.502Z,11.33
2023-05-16T06:29:34.270Z,11.29
2023-05-16T06:32:01.407Z,11.62
2023-05-16T06:34:28.144Z,11.52
2023-05-16T06:36:55.488Z,11.51
2023-05-16T06:39:22.543Z,11.75
2023-05-16T06:41:49.717Z,12.03
2023-05-16T06:44:16.866Z,11.98
2023-05-16T06:46:43.676Z,12.18
2023-05-16T06:49:11.891Z,11.70
2023-05-16T06:51:40.033Z,12.18
2023-05-16T06:54:07.097Z,12.30
2023-05-16T06:56:35.339Z,12.17
2023-05-16T06:59:02.536Z,12.43
2023-05-16T07:01:30.478Z,12.15
2023-05-16T07:03:57.791Z,12.06
2023-05-16T07:06:27.741Z,12.13
2023-05-16T07:08:54.936Z,12.19
2023-05-16T07:11:25.021Z,12.29
2023-05-16T07:13:52.477Z,12.32
2023-05-16T07:16:22.107Z,12.07
2023-05-16T07:18:49.381Z,12.52
2023-05-16T07:21:16.664Z,12.05
2023-05-16T07:23:44.818Z,11.80
2023-05-16T07:26:13.357Z,11.62
2023-05-16T07:28:43.114Z,11.67
2023-05-16T07:31:12.521Z,11.80
2023-05-16T07:33:39.353Z,12.11
2023-05-16T07:38:42.283Z,12.19
2023-05-16T07:41:12.023Z,12.25
2023-05-16T07:43:40.688Z,11.74
2023-05-16T07:46:07.576Z,11.66
2023-05-16T07:48:35.766Z,11.79
2023-05-16T07:51:02.865Z,11.67
2023-05-16T07:53:30.042Z,11.71
2023-05-16T07:55:56.863Z,11.40
2023-05-16T07:58:26.435Z,11.24
2023-05-16T08:00:53.636Z,11.49
2023-05-16T08:03:21.690Z,10.98
2023-05-16T08:05:52.098Z,11.06
2023-05-16T08:08:18.886Z,10.75
2023-05-16T08:10:46.130Z,10.65
2023-05-16T08:13:13.081Z,10.73
2023-05-16T08:15:40.286Z,10.76
2023-05-16T08:18:14.045Z,10.92
2023-05-16T08:20:41.138Z,11.28
2023-05-16T08:23:08.713Z,10.83
2023-05-16T08:25:35.816Z,10.75
2023-05-16T08:28:03.088Z,10.80
2023-05-16T08:30:29.898Z,10.87
2023-05-16T08:32:56.694Z,10.62
2023-05-16T08:35:26.827Z,10.64
2023-05-16T08:37:53.700Z,10.73
2023-05-16T08:40:20.883Z,10.58
2023-05-16T08:42:47.851Z,10.66
2023-05-16T08:45:16.089Z,10.69
2023-05-16T08:47:46.114Z,10.54
2023-05-16T08:50:12.846Z,10.98
2023-05-16T08:52:41.039Z,11.06
2023-05-16T08:55:11.331Z,10.93
2023-05-16T08:57:38.613Z,10.94
2023-05-16T09:00:07.333Z,10.67
2023-05-16T09:02:34.729Z,10.36
2023-05-16T09:05:01.990Z,10.59
2023-05-16T09:07:28.789Z,10.67
2023-05-16T09:09:55.592Z,10.78
2023-05-16T09:12:22.356Z,10.64
2023-05-16T09:14:52.049Z,10.91
2023-05-16T09:17:28.516Z,11.08
2023-05-16T09:20:11.829Z,10.95
2023-05-16T09:22:38.802Z,11.28
2023-05-16T09:25:18.304Z,11.26
2023-05-16T09:28:00.818Z,11.25
2023-05-16T09:30:29.045Z,11.08
2023-05-16T09:32:55.918Z,11.47
2023-05-16T09:35:39.891Z,11.27
2023-05-16T09:38:19.560Z,11.11
2023-05-16T09:40:49.169Z,10.96
2023-05-16T09:43:16.585Z,11.33
2023-05-16T09:45:46.553Z,11.24
2023-05-16T09:48:14.180Z,11.29
2023-05-16T09:50:41.039Z,11.24
2023-05-16T09:53:08.270Z,11.09
2023-05-16T09:55:35.396Z,11.43
2023-05-16T09:58:02.581Z,11.47
2023-05-16T10:00:33.589Z,11.73
2023-05-16T10:03:03.464Z,11.60
2023-05-16T10:05:31.960Z,11.51
2023-05-16T10:07:58.825Z,11.54
2023-05-16T10:10:25.656Z,12.25
2023-05-16T10:12:55.284Z,12.49
2023-05-16T10:15:22.653Z,12.33
2023-05-16T10:17:51.281Z,12.28
2023-05-16T10:20:20.935Z,12.00
2023-05-16T10:22:48.113Z,12.19
2023-05-16T10:25:45.281Z,12.08
2023-05-16T10:28:15.589Z,12.33
2023-05-16T10:30:45.953Z,11.99
2023-05-16T10:33:17.027Z,12.04
2023-05-16T10:35:51.071Z,12.09
2023-05-16T10:38:18.909Z,11.84
2023-05-16T10:40:46.125Z,12.41
2023-05-16T10:43:13.936Z,13.02
2023-05-16T10:45:41.297Z,12.97
2023-05-16T10:48:08.745Z,12.69
2023-05-16T10:50:39.573Z,12.73
2023-05-16T10:53:36.479Z,12.16
2023-05-16T10:56:09.550Z,12.18
2023-05-16T10:58:42.240Z,12.29
2023-05-16T11:01:22.460Z,12.24
2023-05-16T11:04:08.487Z,12.83
2023-05-16T11:06:45.966Z,13.00
2023-05-16T11:09:25.606Z,12.76
2023-05-16T11:11:59.493Z,12.56
2023-05-16T11:14:33.227Z,11.86
2023-05-16T11:17:01.906Z,11.92
2023-05-16T11:19:32.651Z,11.71
2023-05-16T11:22:21.001Z,11.77
2023-05-16T11:24:56.206Z,11.49
2023-05-16T11:27:24.822Z,11.76
2023-05-16T11:29:52.109Z,11.67
2023-05-16T11:32:23.699Z,12.10
2023-05-16T11:34:52.027Z,12.24
2023-05-16T11:37:19.076Z,12.07
2023-05-16T11:39:46.673Z,12.25
2023-05-16T11:42:13.949Z,12.02
2023-05-16T11:44:40.879Z,12.42
2023-05-16T11:47:07.986Z,12.20
2023-05-16T11:49:34.890Z,12.60
2023-05-16T11:52:03.632Z,13.30
2023-05-16T11:54:31.062Z,13.49
2023-05-16T11:56:58.124Z,13.45
2023-05-16T11:59:25.056Z,13.70
2023-05-16T12:01:54.626Z,13.82
2023-05-16T12:04:21.926Z,13.42
2023-05-16T12:06:59.504Z,14.01
2023-05-16T12:09:26.653Z,13.19
2023-05-16T12:11:53.389Z,13.07
2023-05-16T12:14:20.631Z,13.68
2023-05-16T12:16:47.460Z,13.66
2023-05-16T12:19:14.355Z,13.23
2023-05-16T12:21:41.674Z,13.20
2023-05-16T12:24:12.984Z,13.16
2023-05-16T12:26:42.612Z,12.97
2023-05-16T12:29:10.235Z,12.96
2023-05-16T12:31:40.699Z,13.05
2023-05-16T12:34:20.525Z,13.33
2023-05-16T12:36:53.750Z,12.79
2023-05-16T12:39:20.508Z,12.28
2023-05-16T12:41:51.572Z,12.62
2023-05-16T12:44:19.508Z,12.38
2023-05-16T12:46:49.389Z,12.11
2023-05-16T12:49:16.417Z,12.14
2023-05-16T12:51:48.906Z,12.10
2023-05-16T12:54:16.027Z,12.31
2023-05-16T12:56:43.197Z,12.46
2023-05-16T12:59:09.975Z,12.50
2023-05-16T13:01:37.313Z,12.22
2023-05-16T13:04:07.244Z,12.11
2023-05-16T13:06:48.830Z,12.18
2023-05-16T13:09:21.559Z,12.25
2023-05-16T13:11:49.951Z,12.48
2023-05-16T13:14:16.889Z,13.02
2023-05-16T13:16:46.486Z,13.08
2023-05-16T13:19:13.382Z,12.50
2023-05-16T13:21:40.623Z,12.03
2023-05-16T13:24:07.828Z,12.27
2023-05-16T13:26:34.632Z,12.59
2023-05-16T13:29:01.790Z,12.10
2023-05-16T13:31:29.527Z,11.91
2023-05-16T13:33:56.412Z,12.18
2023-05-16T13:36:23.556Z,12.32
2023-05-16T13:38:50.779Z,12.63
2023-05-16T13:41:17.680Z,12.61
2023-05-16T13:43:44.441Z,12.73
2023-05-16T13:46:11.341Z,12.38
2023-05-16T13:48:38.403Z,12.09
2023-05-16T13:51:05.264Z,12.13
2023-05-16T13:53:32.402Z,12.31
2023-05-16T13:55:59.195Z,12.18
2023-05-16T13:58:26.070Z,11.83
2023-05-16T14:00:53.624Z,12.27
2023-05-16T14:03:21.996Z,12.22
2023-05-16T14:05:51.682Z,12.00
2023-05-16T14:08:18.786Z,12.12
2023-05-16T14:10:48.562Z,12.53
2023-05-16T14:13:17.902Z,12.74
2023-05-16T14:15:45.017Z,12.92
2023-05-16T14:18:12.275Z,12.33
2023-05-16T14:20:41.698Z,12.14
2023-05-16T14:23:11.811Z,12.03
2023-05-16T14:25:38.912Z,12.18
2023-05-16T14:28:06.043Z,12.41
2023-05-16T14:30:33.513Z,11.95
2023-05-16T14:33:00.877Z,11.85
2023-05-16T14:35:27.888Z,12.04
2023-05-16T14:38:00.092Z,12.15
2023-05-16T14:40:27.301Z,12.21
2023-05-16T14:42:54.104Z,12.32
2023-05-16T14:45:21.281Z,12.04
2023-05-16T14:47:50.847Z,11.74
2023-05-16T14:50:17.671Z,11.41
2023-05-16T14:52:44.991Z,11.39
2023-05-16T14:55:12.245Z,11.10
2023-05-16T14:57:39.470Z,11.34
2023-05-16T15:00:07.188Z,11.32
2023-05-16T15:02:33.915Z,11.24
2023-05-16T15:05:01.168Z,11.58
2023-05-16T15:07:28.389Z,11.56
2023-05-16T15:09:55.192Z,11.46
2023-05-16T15:12:24.901Z,11.18
2023-05-16T15:14:54.550Z,11.25
2023-05-16T15:17:21.753Z,11.36
2023-05-16T15:19:48.998Z,11.30
2023-05-16T15:22:16.437Z,11.44
2023-05-16T15:24:43.886Z,11.27
2023-05-16T15:27:10.681Z,11.18
2023-05-16T15:29:37.492Z,11.15
2023-05-16T15:32:07.641Z,11.29
2023-05-16T15:34:37.098Z,11.09
2023-05-16T15:37:05.497Z,11.15
2023-05-16T15:39:32.313Z,11.26
2023-05-16T15:42:10.157Z,11.43
2023-05-16T15:44:38.116Z,11.02
2023-05-16T15:47:06.966Z,11.02
2023-05-16T15:49:35.170Z,10.85
2023-05-16T15:52:02.378Z,10.96
2023-05-16T15:54:31.981Z,10.65
2023-05-16T15:56:59.053Z,10.60
2023-05-16T15:59:28.663Z,10.59
2023-05-16T16:01:55.994Z,10.55
2023-05-16T16:04:23.732Z,10.56
2023-05-16T16:06:50.769Z,10.57
2023-05-16T16:09:20.401Z,10.41
2023-05-16T16:11:49.941Z,10.32
2023-05-16T16:14:16.745Z,10.29
2023-05-16T16:16:44.626Z,10.35
2023-05-16T16:19:14.406Z,10.44
2023-05-16T16:21:41.576Z,10.36
2023-05-16T16:24:09.621Z,10.33
2023-05-16T16:26:37.137Z,10.36
2023-05-16T16:29:05.524Z,10.44
2023-05-16T16:31:32.342Z,10.37
2023-05-16T16:33:59.117Z,10.24
2023-05-16T16:36:27.322Z,10.34
2023-05-16T16:38:55.167Z,10.38
2023-05-16T16:41:22.401Z,10.41
2023-05-16T16:43:50.456Z,10.40
2023-05-16T16:46:20.346Z,10.12
2023-05-16T16:48:47.093Z,10.10
2023-05-16T16:51:13.860Z,9.95
2023-05-16T16:53:41.059Z,9.83
2023-05-16T16:56:07.837Z,9.85
2023-05-16T16:58:35.002Z,9.82
2023-05-16T17:01:02.182Z,9.82
2023-05-16T17:03:29.116Z,9.76
2023-05-16T17:05:56.302Z,9.71
2023-05-16T17:08:26.912Z,9.84
2023-05-16T17:10:56.461Z,9.70
2023-05-16T17:13:23.538Z,9.75
2023-05-16T17:15:51.689Z,9.70
2023-05-16T17:18:18.879Z,9.68
2023-05-16T17:20:45.928Z,9.78
2023-05-16T17:23:13.101Z,9.74
2023-05-16T17:25:40.260Z,9.71
2023-05-16T17:28:07.521Z,9.65
2023-05-16T17:30:37.153Z,9.67
2023-05-16T17:33:04.012Z,9.61
2023-05-16T17:35:31.431Z,9.60
2023-05-16T17:37:58.285Z,9.65
2023-05-16T17:40:25.799Z,9.52
2023-05-16T17:42:55.557Z,9.47
2023-05-16T17:45:25.555Z,9.53
2023-05-16T17:47:52.560Z,9.64
2023-05-16T17:50:22.272Z,9.55
2023-05-16T17:52:49.441Z,9.62
2023-05-16T17:55:16.613Z,9.48
2023-05-16T17:57:44.424Z,9.51
2023-05-16T18:00:13.135Z,9.41
2023-05-16T18:02:42.648Z,9.42
2023-05-16T18:05:09.754Z,9.35
2023-05-16T18:07:39.426Z,9.24
2023-05-16T18:10:10.001Z,9.27
2023-05-16T18:12:40.050Z,9.21
2023-05-16T18:15:09.104Z,9.16
2023-05-16T18:17:36.605Z,9.10
2023-05-16T18:20:04.618Z,9.11
2023-05-16T18:22:32.698Z,9.12
2023-05-16T18:24:59.806Z,9.23
2023-05-16T18:27:26.643Z,9.14
2023-05-16T18:29:55.182Z,9.08
2023-05-16T18:32:22.407Z,9.07
2023-05-16T18:34:49.665Z,9.04
2023-05-16T18:37:17.441Z,9.01
2023-05-16T18:39:44.598Z,9.02
2023-05-16T18:42:11.500Z,9.00
2023-05-16T18:45:10.394Z,8.98
2023-05-16T18:48:53.129Z,8.95
2023-05-16T18:51:20.538Z,9.08
2023-05-16T18:53:47.742Z,8.99
2023-05-16T18:56:17.349Z,8.90
2023-05-16T18:58:47.616Z,8.91
2023-05-16T19:01:15.124Z,8.93
2023-05-16T19:03:42.258Z,8.91
2023-05-16T19:06:10.306Z,8.75
2023-05-16T19:08:47.457Z,8.68
2023-05-16T19:11:19.049Z,8.81
2023-05-16T19:13:45.878Z,8.66
2023-05-16T19:16:12.772Z,8.62
2023-05-16T19:18:39.832Z,8.72
2023-05-16T19:21:07.620Z,8.68
2023-05-16T19:23:37.296Z,8.53
2023-05-16T19:26:04.933Z,8.45
2023-05-16T19:28:31.713Z,8.54
2023-05-16T19:31:00.960Z,8.57
2023-05-16T19:33:29.882Z,8.51
2023-05-16T19:35:57.151Z,8.57
2023-05-16T19:38:31.697Z,8.44
2023-05-16T19:41:01.976Z,8.44
2023-05-16T19:43:29.908Z,8.59
2023-05-16T19:45:57.245Z,8.51
2023-05-16T19:48:24.144Z,8.33
2023-05-16T19:51:00.321Z,8.31
2023-05-16T19:53:27.247Z,8.45
2023-05-16T19:55:57.114Z,8.27
2023-05-16T19:58:29.600Z,8.29
2023-05-16T20:00:57.260Z,8.20
2023-05-16T20:03:28.149Z,8.21
2023-05-16T20:05:58.568Z,8.15
2023-05-16T20:08:25.906Z,8.18
2023-05-16T20:10:53.202Z,8.06
2023-05-16T20:13:20.954Z,8.15
2023-05-16T20:15:47.836Z,8.25
2023-05-16T20:18:14.715Z,8.10
2023-05-16T20:20:45.242Z,8.05
2023-05-16T20:23:13.792Z,8.06
2023-05-16T20:25:41.692Z,8.05
2023-05-16T20:28:08.981Z,8.06
2023-05-16T20:30:35.795Z,8.06
2023-05-16T20:33:03.308Z,8.09
2023-05-16T20:35:30.422Z,8.01
2023-05-16T20:37:58.385Z,7.97
2023-05-16T20:40:25.574Z,7.96
2023-05-16T20:42:52.749Z,7.91
2023-05-16T20:45:19.486Z,7.94
2023-05-16T20:47:46.409Z,7.97
2023-05-16T20:50:13.216Z,7.94
2023-05-16T20:52:41.288Z,7.90
2023-05-16T20:55:10.904Z,7.89
2023-05-16T20:57:38.065Z,7.88
2023-05-16T21:00:06.417Z,7.77
2023-05-16T21:02:34.238Z,7.78
2023-05-16T21:05:23.401Z,7.74
2023-05-16T21:07:52.634Z,7.70
2023-05-16T21:10:19.859Z,7.73
2023-05-16T21:12:46.984Z,7.72
2023-05-16T21:15:14.416Z,7.66
2023-05-16T21:17:42.345Z,7.64
2023-05-16T21:20:10.399Z,7.60
2023-05-16T21:22:40.037Z,7.68
2023-05-16T21:25:11.968Z,7.65
2023-05-16T21:27:39.589Z,7.59
2023-05-16T21:30:10.661Z,7.52
2023-05-16T21:32:38.815Z,7.52
2023-05-16T21:35:08.451Z,7.52
2023-05-16T21:37:35.835Z,7.49
2023-05-16T21:40:11.941Z,7.42
2023-05-16T21:42:39.121Z,7.38
2023-05-16T21:45:08.197Z,7.38
2023-05-16T21:47:36.391Z,7.30
2023-05-16T21:50:04.118Z,7.32
2023-05-16T21:52:32.369Z,7.29
2023-05-16T21:55:02.075Z,7.24
2023-05-16T21:57:29.655Z,7.26
2023-05-16T21:59:58.608Z,7.27
2023-05-16T22:02:26.418Z,7.23
2023-05-16T22:04:53.835Z,7.24
2023-05-16T22:07:20.887Z,7.17
2023-05-16T22:09:49.817Z,7.24
2023-05-16T22:12:17.370Z,7.29
2023-05-16T22:14:44.869Z,7.34
2023-05-16T22:17:12.427Z,7.35
2023-05-16T22:19:39.747Z,7.40
2023-05-16T22:22:07.278Z,7.41
2023-05-16T22:24:37.739Z,7.43
2023-05-16T22:27:07.156Z,7.45
2023-05-16T22:29:34.555Z,7.44
2023-05-16T22:32:03.330Z,7.46
2023-05-16T22:34:30.384Z,7.48
2023-05-16T22:37:00.493Z,7.45
2023-05-16T22:39:28.286Z,7.48
2023-05-16T22:41:56.661Z,7.46
2023-05-16T22:44:24.423Z,7.52
2023-05-16T22:46:55.369Z,7.52
2023-05-16T22:49:22.689Z,7.59
2023-05-16T22:51:49.414Z,7.53
2023-05-16T22:54:16.512Z,7.56
2023-05-16T22:56:43.784Z,7.52
2023-05-16T22:59:11.367Z,7.52
2023-05-16T23:01:41.978Z,7.49
2023-05-16T23:04:12.097Z,7.52
2023-05-16T23:06:39.316Z,7.53
2023-05-16T23:11:50.096Z,7.51
2023-05-16T23:14:16.963Z,7.52
2023-05-16T23:16:45.216Z,7.50
2023-05-16T23:19:12.121Z,7.51
2023-05-16T23:21:39.000Z,7.43
2023-05-16T23:24:06.560Z,7.41
2023-05-16T23:26:36.134Z,7.46
2023-05-16T23:29:03.145Z,7.45
2023-05-16T23:31:30.348Z,7.39
2023-05-16T23:34:05.116Z,7.42
2023-05-16T23:36:32.114Z,7.34
2023-05-16T23:39:01.772Z,7.38
2023-05-16T23:41:31.823Z,7.36
2023-05-16T23:43:59.279Z,7.32
2023-05-16T23:46:26.082Z,7.29
2023-05-16T23:48:56.202Z,7.23
2023-05-16T23:51:23.095Z,7.29
2023-05-16T23:53:52.954Z,7.22
2023-05-16T23:56:20.784Z,7.19
2023-05-16T23:58:49.113Z,7.22
